Protivin, Iowa
Current Conditions -  °F | °C
As of 4:15 PM on Friday 24 Oct 2014 (Local Time) from KDEH Reporting Station
Overcast Overcast  
Wind Chill: 59°   Ceiling: 600
Heat Index: 59°   Visibility: 9mi
Dew Point: 55°   Wind: 9mph
Humidity: 88%   Direction: 200°SSW
Pressure: 29.89"   Gusts: NA
Location:  43.22°N, 92.09°W
Report Text: KDEH 242115Z AUTO 20008KT 9SM OVC006 15/13 A2989 RMK AO2
Loading
Personal Weather Stations






























Interactive Weather Map
Tropical Storm Tracking
New forecast layout! Learn more

10-Day Weather Forecast

Advertisements
Track Severe Weather on mobile